»·PEaware :: ASA2280 KSFO-KLAX

ASA2280 :: KSFO-KLAX

FLIGHT INFORMATION

Flight Status: Arrived
Operator:
Alaska Airlines
More flights by this operator :: More flights under this callsign
Pilot: Aidan A. (8368)
Aircraft: BOEING 737-900
(B739)
More flights by this aircraft type
Origin: KSFO San Francisco Intl
United States
Destination: KLAX Los Angeles Intl
United States
More flights between these airports :: More routes between these airports
Route: +SSTIK4 EBAYE BURGL IRNMN2
File this flight plan on PilotEdge
Remarks:
Altitude:
(Current/Filed)
35,000ft
Speed:
(Current/Filed)
480kts
Departed: 09-Oct-18 01:03 PM
Arrived: 09-Oct-18 02:01 PM
Distance/Time
Traveled:
293nm/0:57
Distance/Time
To Go:
Arrived

Flight Plot

Page will automatically refresh every two minutes.

Flight plan parsing failed; only flown route is shown


Map Options




Map Legend


Flown Route
Filed Route
Departure Airport
Arrival Airport
Navaid (VOR, NDB)
Fix

Horizontal Profiles

Position Reports

Time Latitude Longitude Heading Altitude Ground
Speed
09-Oct-18 12:42 37.616772 -122.382218 20 20ft 0kts
09-Oct-18 12:43 37.616772 -122.382218 20 20ft 0kts
09-Oct-18 12:44 37.616772 -122.382218 20 20ft 0kts
09-Oct-18 12:45 37.616772 -122.382218 20 20ft 0kts
09-Oct-18 12:46 37.616772 -122.382218 20 20ft 0kts
09-Oct-18 12:47 37.616772 -122.382218 20 20ft 0kts
09-Oct-18 12:48 37.616772 -122.382218 20 20ft 0kts
09-Oct-18 12:49 37.616772 -122.382218 20 20ft 0kts
09-Oct-18 12:50 37.616772 -122.382218 20 20ft 0kts
09-Oct-18 12:51 37.616772 -122.382218 20 20ft 0kts
09-Oct-18 12:52 37.616772 -122.382218 20 20ft 0kts
09-Oct-18 12:53 37.616772 -122.382218 20 20ft 0kts
09-Oct-18 12:54 37.616477 -122.382359 20 20ft 2kts
09-Oct-18 12:55 37.616140 -122.382520 20 20ft 0kts
09-Oct-18 12:56 37.616141 -122.382520 20 20ft 0kts
09-Oct-18 12:57 37.616193 -122.382412 80 20ft 0kts
09-Oct-18 12:58 37.616194 -122.382406 80 20ft 0kts
09-Oct-18 12:59 37.616213 -122.381972 97 20ft 7kts
09-Oct-18 13:00 37.614474 -122.381067 207 20ft 6kts
09-Oct-18 13:01 37.613085 -122.382001 207 20ft 7kts
09-Oct-18 13:02 37.610882 -122.383452 208 20ft 8kts
09-Oct-18 13:03 37.609801 -122.384212 181 20ft 3kts
09-Oct-18 13:04 37.609173 -122.383446 121 20ft 1kts
09-Oct-18 13:05 37.611328 -122.380628 26 20ft 71kts
09-Oct-18 13:06 37.649300 -122.358907 3 1587ft 175kts
09-Oct-18 13:07 37.684188 -122.379351 283 4297ft 144kts
09-Oct-18 13:08 37.690892 -122.428217 228 4775ft 183kts
09-Oct-18 13:09 37.635233 -122.436480 189 6882ft 219kts
09-Oct-18 13:10 37.570751 -122.451684 195 8933ft 252kts
09-Oct-18 13:11 37.497138 -122.466182 166 10935ft 290kts
09-Oct-18 13:12 37.432618 -122.399937 132 12986ft 318kts
09-Oct-18 13:13 37.370152 -122.313492 132 14997ft 349kts
09-Oct-18 13:14 37.301938 -122.220566 132 17002ft 374kts
09-Oct-18 13:15 37.229291 -122.122004 134 19011ft 393kts
09-Oct-18 13:16 37.153691 -122.019727 134 21014ft 406kts
09-Oct-18 13:17 37.075952 -121.915178 133 23013ft 414kts
09-Oct-18 13:18 36.996881 -121.809281 135 25019ft 416kts
09-Oct-18 13:19 36.918069 -121.704104 136 27014ft 412kts
09-Oct-18 13:20 36.840162 -121.600471 136 29012ft 403kts
09-Oct-18 13:21 36.765008 -121.500805 136 30992ft 385kts
09-Oct-18 13:22 36.694150 -121.407109 137 32942ft 356kts
09-Oct-18 13:23 36.627719 -121.319252 137 34159ft 341kts
09-Oct-18 13:24 36.563938 -121.235309 137 35082ft 327kts
09-Oct-18 13:25 36.501704 -121.153824 137 35352ft 330kts
09-Oct-18 13:26 36.436409 -121.068505 134 35332ft 350kts
09-Oct-18 13:27 36.370445 -120.974545 133 35328ft 373kts
09-Oct-18 13:28 36.300059 -120.873600 132 35269ft 399kts
09-Oct-18 13:29 36.225125 -120.766634 132 35254ft 423kts
09-Oct-18 13:30 36.146110 -120.653539 131 35263ft 447kts
09-Oct-18 13:31 36.062409 -120.534191 131 35254ft 468kts
09-Oct-18 13:32 35.978659 -120.415415 131 35269ft 438kts
09-Oct-18 13:33 35.905533 -120.311553 131 35311ft 456kts
09-Oct-18 13:34 35.805511 -120.211561 151 35315ft 472kts
09-Oct-18 13:35 35.690946 -120.126474 151 35311ft 490kts
09-Oct-18 13:36 35.573001 -120.037663 150 35310ft 505kts
09-Oct-18 13:37 35.452588 -119.946827 150 35309ft 507kts
09-Oct-18 13:38 35.332337 -119.856761 150 35309ft 507kts
09-Oct-18 13:39 35.216329 -119.757787 143 35307ft 508kts
09-Oct-18 13:40 35.104438 -119.652010 143 33897ft 505kts
09-Oct-18 13:41 34.993978 -119.549268 144 31431ft 497kts
09-Oct-18 13:42 34.882788 -119.447029 145 28860ft 501kts
09-Oct-18 13:43 34.769896 -119.346271 145 27539ft 505kts
09-Oct-18 13:44 34.655719 -119.246078 145 25619ft 503kts
09-Oct-18 13:45 34.545378 -119.150461 139 23574ft 453kts
09-Oct-18 13:46 34.446794 -119.063215 141 20822ft 429kts
09-Oct-18 13:47 34.349794 -118.979129 142 18457ft 425kts
09-Oct-18 13:48 34.256935 -118.895172 141 17459ft 415kts
09-Oct-18 13:49 34.164781 -118.810502 140 15358ft 424kts
09-Oct-18 13:50 34.076646 -118.714840 137 11493ft 417kts
09-Oct-18 13:51 34.027397 -118.617281 99 10119ft 360kts
09-Oct-18 13:52 34.014505 -118.503866 93 8686ft 321kts
09-Oct-18 13:53 34.015503 -118.398487 82 6690ft 311kts
09-Oct-18 13:54 34.023932 -118.296430 82 5070ft 290kts
09-Oct-18 13:55 34.031343 -118.204127 82 5007ft 268kts
09-Oct-18 13:56 34.025348 -118.114650 127 4223ft 279kts
09-Oct-18 13:57 33.965614 -118.075075 207 3966ft 257kts
09-Oct-18 13:58 33.954795 -118.149553 285 4033ft 254kts
09-Oct-18 13:59 33.953737 -118.226851 262 3961ft 196kts
09-Oct-18 14:00 33.946761 -118.290873 260 2136ft 185kts
09-Oct-18 14:01 33.940881 -118.346939 261 757ft 156kts
09-Oct-18 14:02 33.936796 -118.388856 260 134ft 41kts
09-Oct-18 14:03 33.937606 -118.390645 75 134ft 9kts
09-Oct-18 14:04 33.939348 -118.388330 354 134ft 11kts
09-Oct-18 14:05 33.939657 -118.391445 262 134ft 15kts
09-Oct-18 14:06 33.939161 -118.396124 262 134ft 15kts
09-Oct-18 14:07 33.939029 -118.400450 318 134ft 12kts
09-Oct-18 14:08 33.939927 -118.401943 351 134ft 3kts
09-Oct-18 14:09 33.939994 -118.401954 352 134ft 0kts
09-Oct-18 14:10 33.939994 -118.401954 352 134ft 0kts
09-Oct-18 14:11 33.939994 -118.401954 352 134ft 0kts

Navigation Log

Ident Type
Flight plan parsing failed, navigation log unavailable